Time;durP1;ratioP1;P1;durP2;ratioP2;P2;SDS_P1;SDS_P2;PMS_P1;PMS_P2;Temp;Humidity;BMP_temperature;BMP_pressure;BME280_temperature;BME280_humidity;BME280_pressure;Samples;Min_cycle;Max_cycle;Signal;HPM_P1;HPM_P2
2022/10/10 00:00:03;;;;;;;0.63;0.60;;;;;;;17.58;100.00;101211.16;21213793;27;20057;-76
2022/10/10 00:10:06;;;;;;;0.82;0.30;;;;;;;17.69;100.00;101221.88;21187879;27;20409;-76
2022/10/10 00:20:13;;;;;;;1.10;0.40;;;;;;;17.68;100.00;101230.09;21165585;27;20566;-76
2022/10/10 00:30:15;;;;;;;0.45;0.30;;;;;;;17.67;100.00;101223.84;21213119;27;20074;-76
2022/10/10 00:40:16;;;;;;;0.40;0.40;;;;;;;17.56;100.00;101201.47;21213279;27;20051;-76
2022/10/10 00:50:19;;;;;;;0.38;0.38;;;;;;;17.67;100.00;101206.81;21193800;27;20116;-76
2022/10/10 01:00:21;;;;;;;0.60;0.60;;;;;;;17.57;100.00;101158.28;21211906;27;20127;-76
2022/10/10 01:10:23;;;;;;;0.40;0.40;;;;;;;17.66;100.00;101159.34;21180520;27;20049;-76
2022/10/10 01:20:43;;;;;;;0.50;0.50;;;;;;;17.66;100.00;101159.34;21225723;27;20551;-76
2022/10/10 01:30:46;;;;;;;0.45;0.43;;;;;;;17.64;100.00;101156.78;21209775;27;20043;-76
2022/10/10 01:41:11;;;;;;;0.90;0.50;;;;;;;17.45;100.00;101113.53;21208077;27;20047;-76
2022/10/10 01:51:30;;;;;;;0.40;0.40;;;;;;;17.64;100.00;101137.09;21225942;27;20120;-76
2022/10/10 02:02:03;;;;;;;0.40;0.40;;;;;;;17.64;100.00;101126.31;21223870;27;20055;-76
2022/10/10 02:12:05;;;;;;;0.30;0.30;;;;;;;17.46;100.00;101081.13;21155376;27;20051;-76
2022/10/10 02:22:08;;;;;;;0.30;0.30;;;;;;;17.44;100.00;101066.94;21221774;27;20039;-76
2022/10/10 02:32:24;;;;;;;0.35;0.35;;;;;;;17.62;100.00;101098.66;21222956;27;20042;-76
2022/10/10 02:42:26;;;;;;;0.32;0.30;;;;;;;17.62;100.00;101095.97;21219588;27;20046;-75
2022/10/10 02:52:28;;;;;;;0.40;0.40;;;;;;;17.61;100.00;101083.50;21219291;27;20104;-76
2022/10/10 03:02:29;;;;;;;0.70;0.57;;;;;;;17.61;100.00;101067.34;21201431;27;20058;-76
2022/10/10 03:12:31;;;;;;;0.63;0.45;;;;;;;17.60;100.00;101060.25;21131927;27;20051;-76
2022/10/10 03:22:32;;;;;;;0.52;0.30;;;;;;;17.59;100.00;101054.03;21216542;27;20054;-76
2022/10/10 03:32:34;;;;;;;0.32;0.32;;;;;;;17.59;100.00;101048.66;21215861;27;20043;-76
2022/10/10 03:42:35;;;;;;;0.43;0.40;;;;;;;17.60;100.00;101041.41;21214492;27;20047;-76
2022/10/10 03:52:36;;;;;;;0.40;0.40;;;;;;;17.60;100.00;101038.72;21216351;27;20047;-76
2022/10/10 04:02:38;;;;;;;0.43;0.43;;;;;;;17.59;100.00;101034.31;21197346;27;20351;-77
2022/10/10 04:12:40;;;;;;;0.35;0.35;;;;;;;17.57;100.00;101020.13;21156571;27;20051;-76
2022/10/10 04:22:41;;;;;;;0.40;0.40;;;;;;;17.40;100.00;101000.91;21167084;27;20045;-76
2022/10/10 04:32:43;;;;;;;0.43;0.40;;;;;;;17.57;100.00;101030.91;20899189;27;20053;-76
2022/10/10 04:42:44;;;;;;;0.50;0.50;;;;;;;17.57;99.90;101036.28;20865397;27;20049;-76
2022/10/10 04:52:45;;;;;;;0.35;0.35;;;;;;;17.57;99.97;101020.13;20817251;27;20041;-76
2022/10/10 05:02:47;;;;;;;0.32;0.30;;;;;;;17.57;100.00;101017.44;20747965;27;20052;-76
2022/10/10 05:12:49;;;;;;;0.50;0.35;;;;;;;17.56;99.96;101015.75;20864711;27;20042;-76
2022/10/10 05:22:51;;;;;;;1.05;0.70;;;;;;;17.58;100.00;101003.88;20731002;27;20080;-74
2022/10/10 05:32:53;;;;;;;3.47;1.10;;;;;;;17.66;100.00;101000.50;20741006;27;20049;-75
2022/10/10 05:42:55;;;;;;;2.85;0.70;;;;;;;17.72;100.00;100997.31;20763829;27;20049;-77
2022/10/10 05:52:56;;;;;;;2.60;1.20;;;;;;;17.75;100.00;100983.56;20764615;27;20421;-77
2022/10/10 06:02:58;;;;;;;1.30;0.70;;;;;;;17.77;100.00;100970.81;20863681;27;20058;-80
2022/10/10 06:12:59;;;;;;;1.77;0.93;;;;;;;17.47;100.00;100918.66;20757585;27;20144;-76
2022/10/10 06:23:01;;;;;;;1.02;0.82;;;;;;;17.83;100.00;100975.66;20750612;27;20608;-76
2022/10/10 06:33:03;;;;;;;1.00;0.90;;;;;;;17.85;100.00;100985.44;20762351;27;20065;-77
2022/10/10 06:43:10;;;;;;;0.55;0.55;;;;;;;17.85;100.00;100994.38;20755981;27;20053;-76
2022/10/10 06:53:12;;;;;;;1.75;0.85;;;;;;;17.65;100.00;100966.47;20720779;27;20133;-74
2022/10/10 07:03:13;;;;;;;1.15;0.85;;;;;;;17.65;100.00;100961.97;20694460;27;20046;-74
2022/10/10 07:13:15;;;;;;;1.80;1.00;;;;;;;17.89;100.00;100985.03;20735749;27;20607;-75
2022/10/10 07:23:16;;;;;;;3.53;1.42;;;;;;;17.81;100.00;100990.25;20720114;27;20065;-76
2022/10/10 07:33:18;;;;;;;18.02;2.35;;;;;;;17.83;100.00;100970.28;20715616;27;20053;-76
2022/10/10 07:43:19;;;;;;;5.70;1.60;;;;;;;18.05;100.00;100997.22;20715241;27;20872;-76
2022/10/10 07:53:21;;;;;;;2.95;1.45;;;;;;;18.09;100.00;101006.72;20709655;27;20042;-76
2022/10/10 08:03:22;;;;;;;3.92;1.48;;;;;;;18.11;100.00;101015.53;20708519;27;20403;-75
2022/10/10 08:13:25;;;;;;;4.57;1.50;;;;;;;18.15;100.00;101019.66;20707816;28;20064;-75
2022/10/10 08:23:27;;;;;;;3.58;1.58;;;;;;;18.21;100.00;101029.03;20683611;28;20886;-74
2022/10/10 08:33:28;;;;;;;1.80;1.10;;;;;;;18.23;99.85;101013.59;20718721;27;20416;-78
2022/10/10 08:43:39;;;;;;;2.80;1.45;;;;;;;18.26;98.81;101019.53;20705881;27;20409;-74
2022/10/10 08:53:43;;;;;;;3.60;1.00;;;;;;;18.29;98.00;101021.13;20699861;27;20715;-74
2022/10/10 09:03:48;;;;;;;3.17;1.20;;;;;;;18.33;97.28;101019.88;20712172;27;20052;-75
2022/10/10 09:14:11;;;;;;;3.50;1.50;;;;;;;18.34;96.94;101016.19;20718427;27;20061;-75
2022/10/10 09:24:19;;;;;;;2.05;1.00;;;;;;;18.28;96.92;101024.81;20748162;27;20334;-76
2022/10/10 09:34:34;;;;;;;3.67;1.65;;;;;;;18.29;97.38;101014.88;20758671;27;20060;-76
2022/10/10 09:44:37;;;;;;;3.33;1.20;;;;;;;18.17;97.82;101019.53;20724091;27;20045;-75
2022/10/10 09:54:39;;;;;;;3.67;1.25;;;;;;;18.23;97.92;101017.13;20750591;27;20782;-75
2022/10/10 10:04:40;;;;;;;2.05;1.33;;;;;;;18.23;98.01;101018.97;20735131;27;20406;-75
2022/10/10 10:14:42;;;;;;;3.63;1.35;;;;;;;18.23;97.81;101033.28;20753038;27;20049;-75
2022/10/10 10:24:43;;;;;;;3.13;1.27;;;;;;;18.07;97.57;101011.38;20766020;27;20053;-75
2022/10/10 10:34:48;;;;;;;2.47;1.33;;;;;;;18.22;97.92;101053.16;20753173;27;20045;-75
2022/10/10 10:44:52;;;;;;;2.67;1.13;;;;;;;18.21;98.22;101048.75;20771498;27;20049;-75
2022/10/10 10:55:07;;;;;;;1.70;1.20;;;;;;;18.06;98.18;101024.00;20750054;27;20048;-75
2022/10/10 11:05:30;;;;;;;2.60;0.98;;;;;;;18.20;98.44;101052.44;20764071;27;20046;-74
2022/10/10 11:15:52;;;;;;;2.25;1.08;;;;;;;18.20;98.62;101046.19;20740952;27;20049;-76
2022/10/10 11:26:21;;;;;;;2.13;1.10;;;;;;;17.96;99.01;101013.16;20735961;27;20049;-75
2022/10/10 11:36:25;;;;;;;2.17;1.20;;;;;;;17.97;99.31;101008.59;20722571;27;20132;-75
2022/10/10 11:46:36;;;;;;;1.17;0.83;;;;;;;18.26;99.23;101051.88;20730297;27;20056;-74
2022/10/10 11:56:40;;;;;;;1.27;1.00;;;;;;;18.01;99.36;101028.09;20730619;27;20056;-75
2022/10/10 12:06:48;;;;;;;2.20;0.85;;;;;;;18.01;99.45;101049.66;20750396;27;20045;-75
2022/10/10 12:16:50;;;;;;;8.80;1.63;;;;;;;18.24;100.00;101088.06;20745150;27;20046;-75
2022/10/10 12:26:55;;;;;;;1.42;1.10;;;;;;;18.23;100.00;101089.03;20736749;27;20132;-75
2022/10/10 12:37:09;;;;;;;2.23;1.57;;;;;;;18.14;100.00;101087.16;20746115;27;20054;-74
2022/10/10 12:47:14;;;;;;;2.15;1.17;;;;;;;18.18;100.00;101092.13;20731998;27;20474;-75
2022/10/10 12:57:39;;;;;;;1.40;1.00;;;;;;;18.15;100.00;101096.94;20743275;27;20058;-74
2022/10/10 13:07:41;;;;;;;2.10;0.80;;;;;;;18.14;100.00;101103.31;20765555;27;20053;-75
2022/10/10 13:17:43;;;;;;;1.00;0.88;;;;;;;18.10;100.00;101113.50;20753380;27;20057;-76
2022/10/10 13:27:44;;;;;;;1.13;1.02;;;;;;;18.09;100.00;101119.88;20750215;27;22275;-74
2022/10/10 13:37:55;;;;;;;1.30;0.77;;;;;;;18.06;100.00;101126.38;20736662;27;20061;-74
2022/10/10 13:47:59;;;;;;;1.77;0.80;;;;;;;18.06;100.00;101145.22;20733543;27;20137;-75
2022/10/10 13:58:05;;;;;;;0.60;0.60;;;;;;;18.04;100.00;101149.91;20716309;27;20111;-74
2022/10/10 14:08:14;;;;;;;0.98;0.82;;;;;;;18.04;100.00;101176.00;20709295;27;20065;-75
2022/10/10 14:18:20;;;;;;;1.95;0.90;;;;;;;18.03;100.00;101180.50;20721471;27;20065;-74
2022/10/10 14:28:25;;;;;;;0.90;0.85;;;;;;;17.74;100.00;101181.13;20750857;27;20145;-75
2022/10/10 14:38:27;;;;;;;1.30;0.85;;;;;;;17.99;100.00;101267.94;20733270;27;20053;-75
2022/10/10 14:48:28;;;;;;;2.92;0.88;;;;;;;17.99;100.00;101305.66;20731702;27;20088;-75
2022/10/10 14:58:30;;;;;;;1.45;0.98;;;;;;;18.01;100.00;101311.78;20735993;27;20107;-76
2022/10/10 15:08:32;;;;;;;1.52;0.98;;;;;;;18.01;100.00;101306.41;20720940;27;20055;-75
2022/10/10 15:18:33;;;;;;;1.67;0.90;;;;;;;17.94;100.00;101315.94;20716853;28;20384;-76
2022/10/10 15:28:54;;;;;;;2.03;1.00;;;;;;;17.68;100.00;101311.72;20710257;27;20045;-75
2022/10/10 15:38:57;;;;;;;0.80;0.60;;;;;;;17.94;100.00;101367.13;20716742;27;20050;-75
2022/10/10 15:49:00;;;;;;;2.00;0.73;;;;;;;17.85;100.00;101379.50;20742140;27;20116;-76
2022/10/10 15:59:02;;;;;;;1.90;0.85;;;;;;;17.91;100.00;101405.09;20730334;27;20136;-75
2022/10/10 16:09:03;;;;;;;1.27;0.77;;;;;;;17.61;100.00;101369.75;20743902;27;20057;-75
2022/10/10 16:19:25;;;;;;;0.90;0.80;;;;;;;17.72;100.00;101408.41;20717349;27;20099;-75
2022/10/10 16:29:26;;;;;;;1.13;0.63;;;;;;;17.87;100.00;101452.94;20718227;27;20042;-75
2022/10/10 16:39:28;;;;;;;0.98;0.60;;;;;;;17.87;100.00;101468.28;20749289;27;20449;-75
2022/10/10 16:49:29;;;;;;;1.20;0.63;;;;;;;17.87;100.00;101497.91;20778125;27;20060;-75
2022/10/10 16:59:33;;;;;;;1.80;0.80;;;;;;;17.69;100.00;101496.53;20754475;27;20068;-76
2022/10/10 17:09:36;;;;;;;1.42;0.90;;;;;;;17.67;100.00;101511.09;20720860;27;20053;-75
2022/10/10 17:19:38;;;;;;;0.80;0.80;;;;;;;17.82;100.00;101555.69;20755284;27;20050;-75
2022/10/10 17:29:39;;;;;;;1.50;0.80;;;;;;;17.61;100.00;101547.44;20716975;27;20656;-75
2022/10/10 17:39:41;;;;;;;2.00;0.80;;;;;;;17.73;100.00;101582.47;20729665;27;20058;-75
2022/10/10 17:49:45;;;;;;;1.20;0.70;;;;;;;17.52;100.00;101575.09;20755994;27;20054;-76
2022/10/10 17:59:46;;;;;;;1.30;0.87;;;;;;;17.25;100.00;101547.47;20787676;27;20050;-75
2022/10/10 18:09:51;;;;;;;2.25;0.80;;;;;;;17.78;100.00;101656.56;20765379;27;20054;-76
2022/10/10 18:19:53;;;;;;;1.42;0.70;;;;;;;17.69;100.00;101643.81;20731395;27;20379;-75
2022/10/10 18:29:54;;;;;;;3.45;1.00;;;;;;;17.78;100.00;101675.41;20740118;27;20138;-76
2022/10/10 18:39:56;;;;;;;1.33;0.77;;;;;;;17.79;100.00;101685.22;20733842;27;20054;-76
2022/10/10 18:49:57;;;;;;;1.90;0.90;;;;;;;17.78;100.00;101702.34;20787271;27;20063;-76
2022/10/10 18:59:59;;;;;;;2.55;0.75;;;;;;;17.77;100.00;101718.59;20870941;27;20053;-75
2022/10/10 19:10:03;;;;;;;2.63;0.98;;;;;;;17.76;100.00;101715.06;20872277;27;20049;-76
2022/10/10 19:20:05;;;;;;;2.80;0.98;;;;;;;17.75;100.00;101731.31;20870029;27;20124;-76
2022/10/10 19:30:07;;;;;;;2.97;1.15;;;;;;;17.76;100.00;101738.44;20870557;27;20139;-76
2022/10/10 19:40:09;;;;;;;1.52;0.70;;;;;;;17.73;100.00;101757.53;20868743;27;20072;-76
2022/10/10 19:50:10;;;;;;;2.88;1.08;;;;;;;17.73;100.00;101777.25;21077394;27;20043;-76
2022/10/10 20:00:12;;;;;;;1.55;0.80;;;;;;;17.72;100.00;101786.31;21215423;27;20051;-76
2022/10/10 20:10:14;;;;;;;1.35;0.70;;;;;;;17.47;100.00;101766.56;21213603;27;20112;-75
2022/10/10 20:20:16;;;;;;;1.80;0.70;;;;;;;17.70;100.00;101815.19;21215529;27;20051;-76
2022/10/10 20:30:17;;;;;;;0.65;0.52;;;;;;;17.70;100.00;101825.94;21214739;27;20450;-75
2022/10/10 20:40:19;;;;;;;1.48;0.73;;;;;;;17.61;100.00;101821.22;21185885;27;20103;-76
2022/10/10 20:50:20;;;;;;;1.20;0.70;;;;;;;17.69;100.00;101851.16;21166419;27;20108;-76
2022/10/10 21:00:22;;;;;;;1.92;0.60;;;;;;;17.68;100.00;101854.81;21211363;27;20416;-76
2022/10/10 21:10:23;;;;;;;1.25;0.63;;;;;;;17.69;100.00;101878.09;21212313;27;20051;-75
2022/10/10 21:20:25;;;;;;;1.88;0.60;;;;;;;17.47;100.00;101846.47;21212223;27;20071;-76
2022/10/10 21:30:26;;;;;;;0.95;0.70;;;;;;;17.67;100.00;101906.94;21228431;27;20058;-75
2022/10/10 21:40:30;;;;;;;1.05;0.73;;;;;;;17.67;100.00;101904.25;21184788;27;20074;-76
2022/10/10 21:50:32;;;;;;;1.17;0.70;;;;;;;17.58;100.00;101899.53;21196251;27;20495;-76
2022/10/10 22:00:33;;;;;;;1.75;0.70;;;;;;;17.57;100.00;101911.25;21224292;27;20055;-75
2022/10/10 22:10:35;;;;;;;1.25;0.70;;;;;;;17.66;100.00;101937.53;21224267;27;20411;-76
2022/10/10 22:20:37;;;;;;;1.33;0.70;;;;;;;17.64;100.00;101937.66;21223121;27;20039;-76
2022/10/10 22:30:38;;;;;;;1.13;0.75;;;;;;;17.52;100.00;101936.69;21223727;27;20051;-77
2022/10/10 22:40:40;;;;;;;1.90;0.70;;;;;;;17.62;100.00;101960.25;21180778;27;20054;-75
2022/10/10 22:50:41;;;;;;;1.02;0.63;;;;;;;17.62;100.00;101973.72;21222488;27;20043;-76
2022/10/10 23:00:43;;;;;;;1.70;0.70;;;;;;;17.27;100.00;101917.88;21219484;27;20043;-75
2022/10/10 23:10:45;;;;;;;1.45;0.57;;;;;;;17.60;100.00;101986.44;21220899;27;20119;-76
2022/10/10 23:20:48;;;;;;;1.17;0.57;;;;;;;17.61;100.00;101982.78;21218726;27;20059;-76
2022/10/10 23:30:49;;;;;;;1.42;0.80;;;;;;;17.28;100.00;101941.13;21217378;27;20515;-75
2022/10/10 23:40:51;;;;;;;0.73;0.52;;;;;;;17.59;100.00;102001.75;21151719;27;20606;-76
2022/10/10 23:50:52;;;;;;;1.67;0.93;;;;;;;17.59;100.00;102001.75;21216739;27;20137;-76
